createdAt,value
2019-02-17T00:01:22.147Z,1.15
2019-02-17T00:06:25.786Z,1.20
2019-02-17T00:11:29.261Z,1.02
2019-02-17T00:16:32.738Z,1.20
2019-02-17T00:21:36.214Z,1.17
2019-02-17T00:26:39.693Z,0.85
2019-02-17T00:31:43.166Z,0.80
2019-02-17T00:36:46.645Z,1.40
2019-02-17T00:41:50.190Z,0.90
2019-02-17T00:46:53.671Z,0.90
2019-02-17T00:51:57.147Z,1.13
2019-02-17T00:57:00.627Z,1.00
2019-02-17T01:02:04.109Z,1.30
2019-02-17T01:07:07.592Z,1.20
2019-02-17T01:12:11.076Z,1.07
2019-02-17T01:17:14.551Z,1.10
2019-02-17T01:22:18.027Z,1.10
2019-02-17T01:27:21.569Z,0.93
2019-02-17T01:32:24.990Z,0.80
2019-02-17T01:37:28.471Z,0.90
2019-02-17T01:42:31.951Z,1.10
2019-02-17T01:47:35.422Z,1.10
2019-02-17T01:52:38.898Z,0.80
2019-02-17T01:57:42.376Z,1.10
2019-02-17T02:02:45.855Z,1.00
2019-02-17T02:07:49.336Z,1.05
2019-02-17T02:12:52.881Z,0.98
2019-02-17T02:17:56.371Z,1.07
2019-02-17T02:22:59.850Z,1.00
2019-02-17T02:28:03.321Z,1.10
2019-02-17T02:33:06.799Z,0.90
2019-02-17T02:38:10.274Z,1.20
2019-02-17T02:43:13.755Z,0.82
2019-02-17T02:48:17.225Z,0.90
2019-02-17T02:53:20.707Z,0.82
2019-02-17T02:58:24.193Z,0.90
2019-02-17T03:03:27.659Z,1.10
2019-02-17T03:08:31.141Z,1.00
2019-02-17T03:13:34.638Z,1.20
2019-02-17T03:18:38.098Z,1.00
2019-02-17T03:23:41.574Z,0.90
2019-02-17T03:28:45.059Z,0.88
2019-02-17T03:33:48.551Z,1.20
2019-02-17T03:38:52.012Z,1.20
2019-02-17T03:43:55.483Z,1.10
2019-02-17T03:48:58.954Z,0.90
2019-02-17T03:54:02.431Z,1.17
2019-02-17T03:59:05.906Z,0.70
2019-02-17T04:04:09.389Z,0.78
2019-02-17T04:09:12.865Z,1.00
2019-02-17T04:14:16.343Z,1.00
2019-02-17T04:19:19.820Z,1.05
2019-02-17T04:24:23.307Z,1.10
2019-02-17T04:29:26.781Z,1.00
2019-02-17T04:34:30.263Z,1.10
2019-02-17T04:39:33.734Z,1.10
2019-02-17T04:44:37.211Z,1.10
2019-02-17T04:49:40.687Z,0.80
2019-02-17T04:54:44.173Z,0.95
2019-02-17T04:59:47.651Z,0.90
2019-02-17T05:04:51.128Z,0.95
2019-02-17T05:09:54.594Z,0.80
2019-02-17T05:14:58.072Z,0.83
2019-02-17T05:20:01.548Z,0.83
2019-02-17T05:25:06.912Z,1.00
2019-02-17T05:30:11.538Z,0.78
2019-02-17T05:35:15.021Z,0.80
2019-02-17T05:40:18.488Z,0.80
2019-02-17T05:45:21.974Z,0.80
2019-02-17T05:50:25.442Z,0.70
2019-02-17T05:55:28.918Z,0.73
2019-02-17T06:00:32.943Z,1.10
2019-02-17T06:05:36.422Z,0.90
2019-02-17T06:10:39.900Z,1.00
2019-02-17T06:15:43.375Z,0.90
2019-02-17T06:20:46.852Z,0.90
2019-02-17T06:25:50.328Z,0.93
2019-02-17T06:30:53.803Z,0.80
2019-02-17T06:35:57.280Z,1.07
2019-02-17T06:41:00.756Z,1.13
2019-02-17T06:46:04.302Z,1.02
2019-02-17T06:51:07.779Z,0.90
2019-02-17T06:56:21.717Z,1.10
2019-02-17T07:01:25.239Z,1.05
2019-02-17T07:06:39.386Z,1.00
2019-02-17T07:11:42.835Z,1.10
2019-02-17T07:16:46.315Z,0.80
2019-02-17T07:21:49.790Z,0.82
2019-02-17T07:26:53.266Z,1.00
2019-02-17T07:31:56.743Z,1.03
2019-02-17T07:37:00.217Z,0.93
2019-02-17T07:42:03.699Z,0.80
2019-02-17T07:47:07.179Z,1.00
2019-02-17T07:52:10.661Z,8.50
2019-02-17T07:57:14.184Z,9.93
2019-02-17T08:02:17.679Z,8.43
2019-02-17T08:07:21.155Z,8.65
2019-02-17T08:12:24.656Z,8.15
2019-02-17T08:17:28.179Z,7.30
2019-02-17T08:22:31.663Z,5.42
2019-02-17T08:27:35.131Z,5.42
2019-02-17T08:32:38.611Z,5.20
2019-02-17T08:37:42.138Z,4.80
2019-02-17T08:42:45.641Z,4.47
2019-02-17T08:47:49.134Z,4.27
2019-02-17T08:52:52.636Z,4.92
2019-02-17T08:57:56.207Z,3.97
2019-02-17T09:02:59.690Z,4.08
2019-02-17T09:08:04.053Z,4.72
2019-02-17T09:13:07.556Z,5.00
2019-02-17T09:18:11.047Z,5.30
2019-02-17T09:23:14.545Z,5.55
2019-02-17T09:28:18.036Z,5.10
2019-02-17T09:33:21.605Z,4.83
2019-02-17T09:38:25.093Z,5.08
2019-02-17T09:43:28.590Z,5.10
2019-02-17T09:48:32.082Z,5.92
2019-02-17T09:53:35.577Z,6.00
2019-02-17T09:58:39.067Z,5.97
2019-02-17T10:03:42.563Z,5.17
2019-02-17T10:08:46.054Z,5.50
2019-02-17T10:13:49.543Z,4.73
2019-02-17T10:18:53.039Z,4.58
2019-02-17T10:23:56.597Z,5.13
2019-02-17T10:29:00.111Z,4.70
2019-02-17T10:34:03.610Z,4.60
2019-02-17T10:39:07.538Z,4.40
2019-02-17T10:44:11.032Z,4.90
2019-02-17T10:49:14.523Z,4.20
2019-02-17T10:54:18.017Z,4.53
2019-02-17T10:59:21.509Z,3.62
2019-02-17T11:04:25.001Z,4.03
2019-02-17T11:09:28.500Z,3.77
2019-02-17T11:14:31.989Z,3.87
2019-02-17T11:19:35.484Z,3.97
2019-02-17T11:24:38.974Z,3.77
2019-02-17T11:29:42.474Z,3.15
2019-02-17T11:34:45.963Z,2.85
2019-02-17T11:39:49.450Z,3.43
2019-02-17T11:44:52.943Z,4.60
2019-02-17T11:49:56.437Z,6.30
2019-02-17T11:54:59.941Z,7.92
2019-02-17T12:00:03.867Z,7.00
2019-02-17T12:05:09.302Z,7.33
2019-02-17T12:10:12.927Z,7.60
2019-02-17T12:15:16.430Z,5.58
2019-02-17T12:20:34.600Z,4.73
2019-02-17T12:25:42.717Z,4.30
2019-02-17T12:30:47.992Z,4.47
2019-02-17T12:35:51.510Z,4.33
2019-02-17T12:40:54.997Z,4.67
2019-02-17T12:45:58.489Z,4.95
2019-02-17T12:51:01.987Z,4.70
2019-02-17T12:56:05.477Z,4.78
2019-02-17T13:01:08.966Z,4.03
2019-02-17T13:06:12.459Z,4.12
2019-02-17T13:11:16.019Z,4.37
2019-02-17T13:16:19.514Z,4.25
2019-02-17T13:21:23.006Z,4.42
2019-02-17T13:26:26.498Z,3.62
2019-02-17T13:31:29.976Z,3.62
2019-02-17T13:36:33.445Z,4.05
2019-02-17T13:41:37.779Z,4.35
2019-02-17T13:46:41.254Z,3.87
2019-02-17T13:51:44.730Z,3.55
2019-02-17T13:56:48.208Z,4.03
2019-02-17T14:01:51.677Z,3.33
2019-02-17T14:06:55.153Z,3.35
2019-02-17T14:11:58.631Z,3.42
2019-02-17T14:17:02.110Z,3.83
2019-02-17T14:22:05.578Z,3.83
2019-02-17T14:27:09.054Z,3.25
2019-02-17T14:32:12.534Z,3.27
2019-02-17T14:37:16.010Z,3.40
2019-02-17T14:42:19.487Z,3.40
2019-02-17T14:47:22.964Z,3.72
2019-02-17T14:52:26.439Z,3.42
2019-02-17T14:57:29.914Z,3.00
2019-02-17T15:02:33.389Z,3.58
2019-02-17T15:07:36.866Z,2.98
2019-02-17T15:12:40.369Z,3.58
2019-02-17T15:17:43.845Z,3.10
2019-02-17T15:22:47.318Z,3.43
2019-02-17T15:27:50.793Z,3.45
2019-02-17T15:33:03.274Z,4.00
2019-02-17T15:37:59.480Z,3.55
2019-02-17T15:43:02.958Z,3.62
2019-02-17T15:48:06.440Z,3.50
2019-02-17T15:53:09.913Z,3.65
2019-02-17T15:58:13.391Z,3.67
2019-02-17T16:03:16.865Z,3.92
2019-02-17T16:08:20.360Z,3.45
2019-02-17T16:13:23.841Z,3.37
2019-02-17T16:18:28.077Z,3.30
2019-02-17T16:23:31.558Z,3.75
2019-02-17T16:28:35.029Z,4.40
2019-02-17T16:33:38.507Z,3.87
2019-02-17T16:38:41.981Z,3.27
2019-02-17T16:43:45.455Z,4.17
2019-02-17T16:48:48.936Z,3.52
2019-02-17T16:53:52.418Z,3.87
2019-02-17T16:58:55.898Z,4.08
2019-02-17T17:03:59.443Z,3.58
2019-02-17T17:09:03.096Z,3.35
2019-02-17T17:14:08.921Z,3.15
2019-02-17T17:19:11.782Z,3.40
2019-02-17T17:24:15.258Z,2.92
2019-02-17T17:29:18.738Z,3.72
2019-02-17T17:34:22.277Z,3.85
2019-02-17T17:39:25.701Z,3.72
2019-02-17T17:44:29.182Z,3.47
2019-02-17T17:49:32.668Z,4.20
2019-02-17T17:54:36.165Z,4.60
2019-02-17T17:59:39.650Z,4.80
2019-02-17T18:04:43.163Z,4.73
2019-02-17T18:09:46.653Z,4.45
2019-02-17T18:14:50.132Z,4.05
2019-02-17T18:19:53.617Z,4.80
2019-02-17T18:24:57.107Z,4.67
2019-02-17T18:30:00.595Z,4.40
2019-02-17T18:35:05.227Z,4.28
2019-02-17T18:40:11.563Z,4.00
2019-02-17T18:45:16.094Z,4.20
2019-02-17T18:50:19.856Z,4.42
2019-02-17T18:55:23.347Z,4.07
2019-02-17T19:00:27.410Z,5.03
2019-02-17T19:05:32.207Z,4.87
2019-02-17T19:10:35.982Z,4.50
2019-02-17T19:15:39.457Z,4.55
2019-02-17T19:20:42.951Z,4.60
2019-02-17T19:25:46.441Z,4.10
2019-02-17T19:30:49.933Z,3.83
2019-02-17T19:35:53.421Z,4.05
2019-02-17T19:40:56.916Z,4.00
2019-02-17T19:46:00.405Z,4.20
2019-02-17T19:51:03.904Z,3.45
2019-02-17T19:56:07.667Z,3.73
2019-02-17T20:01:11.264Z,4.12
2019-02-17T20:06:16.398Z,3.77
2019-02-17T20:11:19.892Z,3.58
2019-02-17T20:16:23.382Z,3.42
2019-02-17T20:21:26.874Z,3.15
2019-02-17T20:26:30.372Z,3.67
2019-02-17T20:31:33.866Z,3.40
2019-02-17T20:36:37.447Z,3.83
2019-02-17T20:41:40.931Z,3.40
2019-02-17T20:46:44.427Z,2.98
2019-02-17T20:51:47.918Z,3.17
2019-02-17T20:56:51.410Z,3.33
2019-02-17T21:01:54.898Z,3.65
2019-02-17T21:06:58.396Z,3.05
2019-02-17T21:12:01.890Z,3.23
2019-02-17T21:17:05.471Z,3.33
2019-02-17T21:22:08.947Z,2.77
2019-02-17T21:27:12.446Z,2.73
2019-02-17T21:32:15.938Z,3.10
2019-02-17T21:37:19.441Z,2.80
2019-02-17T21:42:22.918Z,2.75
2019-02-17T21:47:26.414Z,2.72
2019-02-17T21:52:29.903Z,3.08
2019-02-17T21:57:33.394Z,2.35
2019-02-17T22:02:36.895Z,3.10
2019-02-17T22:07:40.407Z,2.75
2019-02-17T22:12:43.872Z,2.72
2019-02-17T22:17:47.367Z,2.87
2019-02-17T22:22:50.860Z,2.85
2019-02-17T22:27:54.350Z,3.17
2019-02-17T22:32:57.845Z,3.10
2019-02-17T22:38:01.338Z,2.45
2019-02-17T22:43:04.813Z,2.20
2019-02-17T22:48:08.289Z,2.40
2019-02-17T22:53:12.037Z,2.30
2019-02-17T22:58:15.510Z,2.22
2019-02-17T23:03:18.997Z,2.15
2019-02-17T23:08:22.459Z,2.60
2019-02-17T23:13:25.940Z,2.85
2019-02-17T23:18:29.419Z,2.45
2019-02-17T23:23:32.904Z,2.20
2019-02-17T23:28:36.386Z,2.65
2019-02-17T23:33:39.864Z,2.63
2019-02-17T23:38:43.345Z,2.65
2019-02-17T23:43:46.827Z,2.43
2019-02-17T23:48:50.306Z,2.53
2019-02-17T23:53:53.789Z,2.63
2019-02-17T23:58:57.261Z,1.87
